Tiempo atmosférico en la estación meteorológica de La Oliva, Las Palmas (217 m.)



Fecha
DESCASC
Temp. máxima en grados centígrados (hora)
DESCASC
Temp. mínima en grados centígrados (hora)
DESCASC
Temp. media en grados centígrados
DESCASC
Racha de viento máxima en m/sg (hora)
DESCASC
Velocidad máxima media en intervalos de 10 minutos(hora)
DESCASC
Precipitaciones diarias en mm
DESCASC
Precipitaciones de 00:00 a 06:00 en mm
DESCASC
Precipitaciones de 06:00 a 12:00 en mm
DESCASC
Precipitaciones de 12:00 a 18:00 en mm
DESCASC
Precipitaciones de 18:00 a 24:00 en mm
DESCASC
25-02-2021 19.3 (12:40) 13.2 (03:20) 16.2 11.11 (18:00) 6.39 (17:20) 3.4 0 0 3.4 0
24-02-2021 20.9 (17:00) 11.1 (06:20) 16 9.17 (13:50) 5.56 (13:20) 0 0 0 0 0
23-02-2021 20.7 (14:00) 12.2 (07:40) 16.5 8.61 (14:10) 5 (14:50) 0 0 0 0 0
22-02-2021 20.9 (16:20) 9.7 (07:10) 15.3 6.94 (17:00) 3.89 (16:50) 0 0 0 0 0
21-02-2021 18.9 (14:40) 12.1 (00:00) 15.5 9.72 (01:00) 6.67 (01:00) 0.6 0.6 0 0 0
20-02-2021 24.8 (14:50) 10.1 (00:00) 17.4 18.06 (17:40) 12.5 (17:20) 6 0 0 0 6
19-02-2021 22.3 (14:50) 12.6 (00:00) 17.4 7.78 (15:20) 5 (14:20) 0 0 0 0 0
18-02-2021 20.2 (14:40) 12.2 (00:00) 16.2 9.72 (13:40) 6.11 (11:00) 0 0 0 0 0
17-02-2021 18.9 (12:30) 11.6 (00:00) 15.3 13.89 (00:20) 9.72 (00:10) 0 0 0 0 0
16-02-2021 20.8 (16:30) 14.1 (00:00) 17.4 15.28 (12:20) 9.72 (12:00) 0 0 0 0 0
15-02-2021 23.2 (14:30) 13.8 (00:00) 18.5 11.39 (11:30) 7.5 (11:30) 0 0 0 0 0
14-02-2021 20.5 (14:40) 13.5 (00:00) 17 8.89 (23:00) 5.56 (23:50) 0 0 0 0 0
13-02-2021 19.8 (14:20) 12.9 (00:00) 16.3 9.17 (12:30) 5.83 (12:20) 0 0 0 0 0
12-02-2021 19.8 (14:20) 13.8 (00:00) 16.8 11.39 (15:00) 6.67 (15:00) 0 0 0 0 0
11-02-2021 20.2 (12:40) 13.9 (00:00) 17.1 7.5 (14:00) 4.17 (14:00) 0 0 0 0 0
10-02-2021 20.5 (14:20) 13.4 (00:00) 16.9 6.39 (15:20) 3.61 (15:30) 0 0 0 0 0
09-02-2021 20.6 (14:40) 12.1 (00:00) 16.4 7.22 (11:40) 5 (16:00) 0 0 0 0 0
08-02-2021 19 (15:20) 13.7 (00:00) 16.3 7.5 (14:40) 3.89 (15:30) 0 0 0 0 0
07-02-2021 18.2 (13:50) 11.5 (00:00) 14.9 8.89 (00:50) 4.72 (16:30) 0 0 0 0 0
06-02-2021 17.7 (14:40) 9.3 (00:00) 13.5 12.22 (14:50) 7.78 (14:40) 0 0 0 0 0
05-02-2021 15.7 (11:30) 10.5 (00:00) 13.1 11.67 (02:40) 8.33 (02:30) 2 0.4 0 0 1.6
04-02-2021 15.2 (00:00) 11.8 (00:00) 13.5 11.67 (11:10) 8.06 (13:40) 2.2 0 1 1 0.2
03-02-2021 21.3 (13:10) 13.9 (00:00) 17.6 7.22 (13:30) 3.89 (13:10) 0 0 0 0 0
02-02-2021 20.5 (14:50) 14.7 (00:00) 17.6 7.78 (10:20) 5.28 (10:20) 0 0 0 0 0
01-02-2021 22.3 (13:40) 12.6 (00:00) 17.4 12.5 (10:50) 7.78 (10:40) 0 0 0 0 0
31-01-2021 20.3 (14:10) 14.4 (00:00) 17.3 11.39 (15:10) 6.67 (17:10) 0 0 0 0 0
30-01-2021 20.2 (13:20) 14.3 (00:00) 17.3 8.33 (02:50) 5.28 (04:40) 0 0 0 0 0

Gráficas

Temp. máximas Temp. mínimas Temp. medias Precipitaciones Rachas de viento máximas Velocidades máximas media en intervalos de 10 minutos

Datos horarios

Fecha y hora oficial Temperatura (ºC) Velocidad del viento (km/h) Dirección del viento Racha (km/h) Dirección de racha Precipitación (mm) Presión (hPa) Tendencia (hPa) Humedad (%)
2021-02-28 23:00:00 13.1 3 Noroeste 10 Noroeste 0 -- -- 84
2021-02-28 22:00:00 13.3 4 Noroeste 13 Noroeste 0 -- -- 84
2021-02-28 21:00:00 13.7 8 Noroeste 19 Noroeste 0 -- -- 81
2021-02-28 20:00:00 14.1 7 Noroeste 20 Noroeste 0 -- -- 80
2021-02-28 19:00:00 14.9 13 Noroeste 26 Noroeste 0 -- -- 76
2021-02-28 18:00:00 15.8 17 Noroeste 30 Noroeste 0.4 -- -- 74
2021-02-28 17:00:00 16.9 17 Noroeste 36 Noroeste 0 -- -- 69
2021-02-28 16:00:00 17.5 17 Noroeste 30 Noroeste 0 -- -- 60
2021-02-28 15:00:00 17.2 16 Noroeste 32 Norte 0 -- -- 65
2021-02-28 14:00:00 18.1 14 Noroeste 29 Norte 0 -- -- 60
2021-02-28 13:00:00 18.4 15 Noroeste 28 Norte 0 -- -- 58
2021-02-28 12:00:00 17.9 12 Norte 23 Noroeste 0 -- -- 59
2021-02-28 11:00:00 16.9 12 Norte 21 Nordeste 0 -- -- 63
2021-02-28 10:00:00 15.6 13 Norte 22 Nordeste 0 -- -- 73
2021-02-28 09:00:00 13.7 10 Nordeste 17 Nordeste 0 -- -- 84
2021-02-28 08:00:00 11.3 3 Sudeste 10 Norte 0 -- -- 89
2021-02-28 07:00:00 11.2 2 Este 5 Nordeste 0 -- -- 90
2021-02-28 06:00:00 11.4 0 Calma 4 Norte 0 -- -- 90
2021-02-28 05:00:00 11.6 0 Calma 6 Sur 0 -- -- 90
2021-02-28 04:00:00 11.6 0 Calma 5 Nordeste 0 -- -- 90
2021-02-28 03:00:00 12.1 3 Oeste 6 Sudoeste 0 -- -- 91
2021-02-28 02:00:00 12.6 5 Noroeste 8 Oeste 0 -- -- 89
2021-02-28 01:00:00 13.2 2 Norte 27 Norte 0 -- -- 88
2021-02-28 00:00:00 13.4 8 Oeste 18 Noroeste 0 -- -- 86
2021-02-27 23:00:00 12.9 10 Noroeste 26 Oeste 0 -- -- 84
2021-02-27 22:00:00 13.7 15 Noroeste 28 Noroeste 0 -- -- 83
2021-02-27 21:00:00 14.1 14 Noroeste 26 Noroeste 0 -- -- 77
2021-02-27 20:00:00 13.8 14 Noroeste 25 Noroeste 0 -- -- 70
2021-02-27 19:00:00 14.7 15 Noroeste 30 Noroeste 0 -- -- 63
2021-02-27 18:00:00 16.2 17 Noroeste 33 Noroeste 0 -- -- 55
2021-02-27 17:00:00 17.1 18 Noroeste 32 Norte 0 -- -- 51
2021-02-27 16:00:00 17.5 18 Noroeste 36 Noroeste 0 -- -- 51
2021-02-27 15:00:00 18 19 Noroeste 35 Noroeste 0 -- -- 51
2021-02-27 14:00:00 17.9 17 Noroeste 33 Noroeste 0 -- -- 48
2021-02-27 13:00:00 16.7 19 Noroeste 35 Noroeste 0 -- -- 57
2021-02-27 12:00:00 16.6 19 Noroeste 33 Noroeste 0 -- -- 59
2021-02-27 11:00:00 15.5 14 Norte 30 Noroeste 0 -- -- 61
2021-02-27 10:00:00 14.8 14 Noroeste 28 Noroeste 0 -- -- 70
2021-02-27 09:00:00 12.8 2 Sur 17 Nordeste 0 -- -- 78
2021-02-27 08:00:00 11.8 13 Nordeste 33 Norte 0 -- -- 82
2021-02-27 07:00:00 12.4 12 Norte 24 Norte 0 -- -- 80
2021-02-27 06:00:00 12.4 4 Norte 24 Norte 0 -- -- 69
2021-02-27 05:00:00 13.1 12 Norte 23 Norte 0 -- -- 68
2021-02-27 04:00:00 13.1 12 Norte 30 Norte 0 -- -- 74
2021-02-27 03:00:00 12.9 13 Norte 27 Norte 0 -- -- 81
2021-02-27 02:00:00 13.2 12 Norte 22 Nordeste 0 -- -- 76
2021-02-27 01:00:00 13.2 10 Norte 23 Norte 0 -- -- 74
2021-02-27 00:00:00 13.4 12 Norte 26 Norte 0 -- -- 77
2021-02-26 23:00:00 13.5 13 Norte 23 Norte 0 -- -- 72
2021-02-26 22:00:00 13.6 14 Norte 24 Norte 0 -- -- 72
2021-02-26 21:00:00 13.8 15 Norte 31 Nordeste 0 -- -- 75
2021-02-26 20:00:00 14.3 22 Norte 39 Norte 0 -- -- 75
2021-02-26 19:00:00 14.9 19 Norte 35 Norte 0 -- -- 61
2021-02-26 18:00:00 15.7 21 Norte 41 Noroeste 0 -- -- 62
2021-02-26 17:00:00 16.3 19 Norte 41 Norte 0 -- -- 54
2021-02-26 16:00:00 17.8 20 Norte 39 Noroeste 0 -- -- 50
2021-02-26 15:00:00 17.5 21 Norte 39 Norte 0 -- -- 51
2021-02-26 14:00:00 17.5 23 Norte 42 Norte 0 -- -- 49
2021-02-26 13:00:00 17.2 22 Norte 42 Norte 0 -- -- 57
2021-02-26 12:00:00 16.9 22 Norte 42 Norte 0 -- -- 54
2021-02-26 11:00:00 16.4 19 Norte 42 Norte 0 -- -- 60
2021-02-26 10:00:00 16 21 Norte 35 Norte 0 -- -- 61
2021-02-26 09:00:00 14.7 19 Norte 36 Nordeste 0 -- -- 68
2021-02-26 08:00:00 13.3 18 Norte 36 Norte 0 -- -- 75
2021-02-26 07:00:00 13.8 21 Norte 37 Norte 0 -- -- 74
2021-02-26 06:00:00 14 21 Norte 39 Norte 0 -- -- 70
2021-02-26 05:00:00 13.6 17 Norte 34 Norte 0 -- -- 72
2021-02-26 04:00:00 13.4 14 Norte 30 Norte 0 -- -- 74
2021-02-26 03:00:00 13.5 9 Norte 26 Noroeste 0 -- -- 79
2021-02-26 02:00:00 13.7 12 Norte 22 Norte 0 -- -- 77
2021-02-26 01:00:00 13.2 8 Norte 18 Norte 0 -- -- 74
2021-02-26 00:00:00 13.2 10 Norte 29 Noroeste 0 -- -- 68
2021-02-25 23:00:00 13.5 16 Norte 29 Norte 0 -- -- 65
2021-02-25 22:00:00 13.8 17 Norte 32 Norte 0 -- -- 65
2021-02-25 21:00:00 14.2 15 Norte 28 Norte 0 -- -- 64
2021-02-25 20:00:00 14.8 17 Norte 33 Norte 0 -- -- 71
2021-02-25 19:00:00 15.4 18 Norte 38 Norte 0 -- -- 71
2021-02-25 18:00:00 16.1 20 Norte 40 Norte 0 -- -- 68
2021-02-25 17:00:00 16.9 18 Norte 33 Noroeste 0 -- -- 70
2021-02-25 16:00:00 16.7 14 Norte 35 Norte 0 -- -- 77
2021-02-25 15:00:00 16.2 18 Norte 36 Noroeste 2.2 -- -- 82
2021-02-25 14:00:00 16.3 15 Norte 30 Norte 1.2 -- -- 88
2021-02-25 13:00:00 18.7 19 Nordeste 31 Nordeste 0 -- -- 71
2021-02-25 12:00:00 18.9 13 Nordeste 28 Nordeste 0 -- -- 68
2021-02-25 11:00:00 18.9 18 Nordeste 29 Nordeste 0 -- -- 65
2021-02-25 10:00:00 17.4 17 Nordeste 27 Nordeste 0 -- -- 72
2021-02-25 09:00:00 15.9 13 Nordeste 23 Este 0 -- -- 81
2021-02-25 08:00:00 14.7 9 Nordeste 17 Este 0 -- -- 86
2021-02-25 07:00:00 14.6 10 Nordeste 24 Este 0 -- -- 87
2021-02-25 06:00:00 14.4 13 Este 21 Este 0 -- -- 86
2021-02-25 05:00:00 14.1 8 Este 19 Nordeste 0 -- -- 86
2021-02-25 04:00:00 13.8 9 Nordeste 17 Este 0 -- -- 88
2021-02-25 03:00:00 13.5 3 Este 6 Este 0 -- -- 87
2021-02-25 02:00:00 13.9 2 Este 10 Norte 0 -- -- 86
2021-02-25 01:00:00 14.4 4 Sudeste 15 Este 0 -- -- 83
2021-02-25 00:00:00 15.1 10 Este 19 Nordeste 0 -- -- 85
2021-02-24 23:00:00 14.9 6 Este 12 Este 0 -- -- 86
2021-02-24 22:00:00 15.6 7 Nordeste 28 Norte 0 -- -- 84
2021-02-24 21:00:00 16 12 Norte 27 Norte 0 -- -- 85
2021-02-24 20:00:00 16.5 12 Norte 27 Nordeste 0 -- -- 83
2021-02-24 19:00:00 17.3 16 Norte 31 Norte 0 -- -- 81
2021-02-24 18:00:00 19.6 13 Norte 28 Norte 0 -- -- 68
2021-02-24 17:00:00 20.9 10 Nordeste 21 Nordeste 0 -- -- 45
2021-02-24 16:00:00 20.6 14 Este 26 Este 0 -- -- 54
2021-02-24 15:00:00 20.5 15 Este 28 Este 0 -- -- 60
2021-02-24 14:00:00 19.8 17 Nordeste 33 Nordeste 0 -- -- 69
2021-02-24 13:00:00 19.5 15 Nordeste 30 Nordeste 0 -- -- 68
2021-02-24 12:00:00 19 17 Nordeste 28 Nordeste 0 -- -- 71
2021-02-24 11:00:00 18.8 15 Nordeste 24 Nordeste 0 -- -- 67
2021-02-24 10:00:00 17.9 13 Nordeste 24 Nordeste 0 -- -- 70
2021-02-24 09:00:00 15.7 7 Este 11 Este 0 -- -- 86
2021-02-24 08:00:00 12.9 2 Este 5 Nordeste 0 -- -- 94
2021-02-24 07:00:00 12 2 Sudeste 11 Oeste 0 -- -- 90
2021-02-24 06:00:00 11.3 0 Calma 7 Sudeste 0 -- -- 89
2021-02-24 05:00:00 11.9 3 Este 6 Sudeste 0 -- -- 90
2021-02-24 04:00:00 13.3 3 Este 10 Nordeste 0 -- -- 92
2021-02-24 03:00:00 12.3 0 Calma 3 Noroeste 0 -- -- 90
2021-02-24 02:00:00 12.9 0 Calma 7 Sudeste 0 -- -- 88
2021-02-24 01:00:00 13.4 5 Sudeste 8 Sur 0 -- -- 89
2021-02-24 00:00:00 14 0 Calma 5 Sudoeste 0 -- -- 88
2021-02-23 23:00:00 15.2 2 Nordeste 10 Nordeste 0 -- -- 85
2021-02-23 22:00:00 15.7 5 Este 14 Este 0 -- -- 84
2021-02-23 21:00:00 15.9 6 Este 11 Este 0 -- -- 86
2021-02-23 20:00:00 16.2 4 Este 14 Este 0 -- -- 83
2021-02-23 19:00:00 17.1 9 Nordeste 15 Nordeste 0 -- -- 78
2021-02-23 18:00:00 18.3 10 Nordeste 19 Nordeste 0 -- -- 71
2021-02-23 17:00:00 18.9 12 Este 24 Sudeste 0 -- -- 70
2021-02-23 16:00:00 19.4 18 Este 29 Este 0 -- -- 68
2021-02-23 15:00:00 20.1 18 Este 31 Nordeste 0 -- -- 66
2021-02-23 14:00:00 20.7 12 Nordeste 23 Nordeste 0 -- -- 60
2021-02-23 13:00:00 19.5 13 Nordeste 26 Este 0 -- -- 66
2021-02-23 12:00:00 19.1 15 Este 26 Este 0 -- -- 71
2021-02-23 11:00:00 18.2 17 Este 27 Este 0 -- -- 75
2021-02-23 10:00:00 16.2 13 Este 19 Este 0 -- -- 86
2021-02-23 09:00:00 14.8 7 Este 12 Este 0 -- -- 90
2021-02-23 08:00:00 12.8 5 Este 7 Sudeste 0 -- -- 94
2021-02-23 07:00:00 12.8 5 Nordeste 8 Este 0 -- -- 91
2021-02-23 06:00:00 13.8 4 Este 6 Este 0 -- -- 89
2021-02-23 05:00:00 14.1 0 Calma 10 Nordeste 0 -- -- 88
2021-02-23 04:00:00 15.1 2 Sur 9 Norte 0 -- -- 89
2021-02-23 03:00:00 15 3 Oeste 7 Noroeste 0 -- -- 89
2021-02-23 02:00:00 14.5 3 Oeste 8 Noroeste 0 -- -- 90
2021-02-23 01:00:00 13.9 4 Sudoeste 11 Oeste 0 -- -- 88
2021-02-23 00:00:00 13.9 4 Noroeste 6 Oeste 0 -- -- 89
2021-02-22 23:00:00 13.9 0 Calma 5 Noroeste 0 -- -- 85
2021-02-22 22:00:00 14.2 2 Oeste 8 Oeste 0 -- -- 83
2021-02-22 21:00:00 14.7 6 Oeste 11 Noroeste 0 -- -- 81
2021-02-22 20:00:00 -- -- -- -- -- -- -- -- --
2021-02-22 19:00:00 16.7 9 Noroeste 19 Noroeste 0 -- -- 71
2021-02-22 18:00:00 18.7 11 Noroeste 22 Noroeste 0 -- -- 62
2021-02-22 17:00:00 19.9 13 Noroeste 25 Noroeste 0 -- -- 54
2021-02-22 16:00:00 20.8 12 Noroeste 21 Oeste 0 -- -- 48
2021-02-22 15:00:00 19.7 9 Noroeste 20 Noroeste 0 -- -- 56
2021-02-22 14:00:00 19.5 6 Noroeste 17 Noroeste 0 -- -- 58
2021-02-22 13:00:00 20.2 6 Noroeste 15 Noroeste 0 -- -- 55
2021-02-22 12:00:00 19.2 8 Noroeste 16 Noroeste 0 -- -- 54
2021-02-22 11:00:00 17.8 2 Sudeste 8 Norte 0 -- -- 62
2021-02-22 10:00:00 17.1 3 Noroeste 12 Noroeste 0 -- -- 68
2021-02-22 09:00:00 13.9 0 Calma 4 Sudeste 0 -- -- 83
2021-02-22 08:00:00 10 2 Nordeste 5 Nordeste 0 -- -- 89
2021-02-22 07:00:00 9.9 0 Calma 5 Sudeste 0 -- -- 87
2021-02-22 06:00:00 10.3 0 Calma 5 Sudeste 0 -- -- 87
2021-02-22 05:00:00 10.3 0 Calma 4 Sudeste 0 -- -- 87
2021-02-22 04:00:00 10.3 0 Calma 5 Sudeste 0 -- -- 84
2021-02-22 03:00:00 10.8 0 Calma 5 Sudeste 0 -- -- 85
2021-02-22 02:00:00 10.9 0 Calma 4 Sudeste 0 -- -- 84
2021-02-22 01:00:00 11.6 0 Calma 6 Sudeste 0 -- -- 82
2021-02-22 00:00:00 12.2 3 Sudeste 6 Sudeste 0 -- -- 81
2021-02-21 23:00:00 12.5 0 Calma 5 Sur 0 -- -- 79
2021-02-21 22:00:00 12.9 4 Sur 6 Noroeste 0 -- -- 78
2021-02-21 21:00:00 13.6 0 Calma 6 Norte 0 -- -- 74
2021-02-21 20:00:00 14.6 0 Calma 8 Norte 0 -- -- 70
2021-02-21 19:00:00 15.6 6 Noroeste 24 Noroeste 0 -- -- 66
2021-02-21 18:00:00 17.1 13 Noroeste 28 Noroeste 0 -- -- 58
2021-02-21 17:00:00 17.5 16 Noroeste 28 Noroeste 0 -- -- 57
2021-02-21 16:00:00 17.3 16 Noroeste 34 Noroeste 0 -- -- 56
2021-02-21 15:00:00 18.7 16 Noroeste 29 Noroeste 0 -- -- 54
2021-02-21 14:00:00 18.8 15 Noroeste 32 Norte 0 -- -- 57
2021-02-21 13:00:00 18.5 14 Noroeste 31 Noroeste 0 -- -- 60
2021-02-21 12:00:00 17.1 15 Noroeste 30 Noroeste 0 -- -- 64
2021-02-21 11:00:00 17.6 19 Noroeste 29 Noroeste 0 -- -- 61
2021-02-21 10:00:00 16.6 15 Noroeste 28 Noroeste 0 -- -- 72
2021-02-21 09:00:00 15.3 18 Noroeste 31 Noroeste 0 -- -- 75
2021-02-21 08:00:00 14 12 Noroeste 25 Oeste 0 -- -- 76
2021-02-21 07:00:00 13.4 15 Noroeste 31 Noroeste 0 -- -- 80
2021-02-21 06:00:00 14 17 Noroeste 30 Noroeste 0 -- -- 80
2021-02-21 05:00:00 14.4 22 Noroeste 33 Noroeste 0 -- -- 82
2021-02-21 04:00:00 14.2 15 Noroeste 27 Oeste 0 -- -- 86
2021-02-21 03:00:00 14.8 11 Noroeste 25 Noroeste 0 -- -- 92
2021-02-21 02:00:00 14.9 13 Noroeste 29 Noroeste 0 -- -- 92
2021-02-21 01:00:00 15.1 24 Noroeste 35 Noroeste 0.6 -- -- 94
2021-02-21 00:00:00 14.8 14 Noroeste 40 Noroeste 0.8 -- -- 95
2021-02-20 23:00:00 14.9 27 Noroeste 53 Oeste 5.2 -- -- 94
2021-02-20 22:00:00 17.2 35 Oeste 49 Oeste 0 -- -- 87
2021-02-20 21:00:00 16.9 33 Sudoeste 51 Sudoeste 0 -- -- 85
2021-02-20 20:00:00 17 33 Sudoeste 54 Sudoeste 0 -- -- 82
2021-02-20 19:00:00 17 41 Sudoeste 58 Sudoeste 0 -- -- 79
2021-02-20 18:00:00 18 42 Sudoeste 65 Sudoeste 0 -- -- 60
2021-02-20 17:00:00 20.1 40 Sudoeste 60 Sudoeste 0 -- -- 37
2021-02-20 16:00:00 21 40 Sudoeste 55 Sudoeste 0 -- -- 49
2021-02-20 15:00:00 24.1 33 Sudoeste 47 Sudoeste 0 -- -- 33
2021-02-20 14:00:00 23.9 35 Sudoeste 51 Sudoeste 0 -- -- 21
2021-02-20 13:00:00 22.6 33 Sudoeste 45 Sudoeste 0 -- -- 22
2021-02-20 12:00:00 23.6 25 Sudoeste 42 Sudoeste 0 -- -- 25
2021-02-20 11:00:00 22 19 Sudoeste 34 Sudoeste 0 -- -- 22
2021-02-20 10:00:00 18.5 8 Sudoeste 22 Oeste 0 -- -- 32
2021-02-20 09:00:00 13.4 2 Nordeste 8 Este 0 -- -- 58
2021-02-20 08:00:00 10.2 3 Sudeste 8 Sudeste 0 -- -- 53
2021-02-20 07:00:00 11.2 5 Noroeste 7 Noroeste 0 -- -- 43
2021-02-20 06:00:00 10.2 3 Sudeste 4 Sudeste 0 -- -- 50
2021-02-20 05:00:00 11.7 4 Nordeste 9 Este 0 -- -- 45
2021-02-20 04:00:00 11.4 8 Este 10 Este 0 -- -- 45
2021-02-20 03:00:00 11.8 8 Este 11 Este 0 -- -- 51
2021-02-20 02:00:00 12.2 5 Este 7 Este 0 -- -- 58
2021-02-20 01:00:00 12.3 0 Calma 6 Oeste 0 -- -- 67
2021-02-20 00:00:00 13.1 0 Calma 3 Nordeste 0 -- -- 74
2021-02-19 23:00:00 13.4 3 Sudoeste 8 Noroeste 0 -- -- 70
2021-02-19 22:00:00 14.8 8 Noroeste 10 Noroeste 0 -- -- 64
2021-02-19 21:00:00 15.4 8 Sudoeste 14 Sudoeste 0 -- -- 53
2021-02-19 20:00:00 16.6 10 Oeste 18 Oeste 0 -- -- 59
2021-02-19 19:00:00 18 13 Oeste 19 Sudoeste 0 -- -- 53
2021-02-19 18:00:00 19.8 12 Oeste 23 Oeste 0 -- -- 45
2021-02-19 17:00:00 21.3 17 Sudoeste 25 Oeste 0 -- -- 31
2021-02-19 16:00:00 21.9 15 Este 28 Este 0 -- -- 37
2021-02-19 15:00:00 22.3 17 Este 28 Este 0 -- -- 36
2021-02-19 14:00:00 22.1 17 Este 26 Este 0 -- -- 35
2021-02-19 13:00:00 21.7 15 Este 25 Este 0 -- -- 30
2021-02-19 12:00:00 20.6 15 Este 26 Sudeste 0 -- -- 43
2021-02-19 11:00:00 18.7 14 Este 25 Este 0 -- -- 57
2021-02-19 10:00:00 17.1 12 Este 19 Este 0 -- -- 78
2021-02-19 09:00:00 15.1 9 Este 16 Este 0 -- -- 90
2021-02-19 08:00:00 13.1 9 Este 14 Este 0 -- -- 92
2021-02-19 07:00:00 12.6 9 Este 11 Este 0 -- -- 89
2021-02-19 06:00:00 13.4 9 Este 16 Este 0 -- -- 83
2021-02-19 05:00:00 13.5 11 Este 17 Nordeste 0 -- -- 85
2021-02-19 04:00:00 13.8 9 Este 19 Este 0 -- -- 88
2021-02-19 03:00:00 13.4 9 Este 16 Este 0 -- -- 89
2021-02-19 02:00:00 13.5 8 Este 14 Este 0 -- -- 79
2021-02-19 01:00:00 13.6 7 Este 13 Este 0 -- -- 77
2021-02-19 00:00:00 14 9 Este 13 Este 0 -- -- 86
2021-02-18 23:00:00 14.2 9 Este 13 Este 0 -- -- 83
2021-02-18 22:00:00 14.7 6 Este 15 Este 0 -- -- 81
2021-02-18 21:00:00 15.5 10 Este 18 Nordeste 0 -- -- 67
2021-02-18 20:00:00 15.6 6 Este 15 Este 0 -- -- 71
2021-02-18 19:00:00 16.7 8 Este 22 Este 0 -- -- 62
2021-02-18 18:00:00 18.4 14 Este 25 Este 0 -- -- 44
2021-02-18 17:00:00 19.3 13 Este 27 Nordeste 0 -- -- 44
2021-02-18 16:00:00 20 18 Este 32 Este 0 -- -- 42
2021-02-18 15:00:00 20.1 17 Este 33 Este 0 -- -- 48
2021-02-18 14:00:00 19.9 22 Este 35 Este 0 -- -- 49
2021-02-18 13:00:00 19.8 19 Este 32 Este 0 -- -- 54
2021-02-18 12:00:00 19.2 20 Este 32 Este 0 -- -- 56
2021-02-18 11:00:00 18.4 22 Este 34 Este 0 -- -- 61
2021-02-18 10:00:00 16.9 18 Este 29 Este 0 -- -- 72
2021-02-18 09:00:00 15.4 15 Este 32 Este 0 -- -- 86
2021-02-18 08:00:00 14.4 20 Este 30 Este 0 -- -- 89
2021-02-18 07:00:00 14.1 11 Este 21 Este 0 -- -- 87
2021-02-18 06:00:00 13.9 9 Este 19 Este 0 -- -- 85
2021-02-18 05:00:00 14.2 14 Este 25 Este 0 -- -- 78
2021-02-18 04:00:00 14.2 13 Este 22 Este 0 -- -- 73
2021-02-18 03:00:00 14.4 13 Este 27 Este 0 -- -- 74
2021-02-18 02:00:00 14.7 17 Este 31 Este 0 -- -- 70
2021-02-18 01:00:00 14.2 15 Este 28 Este 0 -- -- 69
2021-02-18 00:00:00 12.2 7 Este 10 Este 0 -- -- 41
2021-02-17 23:00:00 12.4 5 Este 8 Sur 0 -- -- 53
2021-02-17 22:00:00 13.2 5 Sudeste 7 Sudeste 0 -- -- 44
2021-02-17 21:00:00 13.8 0 Calma 9 Este 0 -- -- 42
2021-02-17 20:00:00 15 6 Este 10 Nordeste 0 -- -- 44
2021-02-17 19:00:00 16 9 Nordeste 14 Nordeste 0 -- -- 41
2021-02-17 18:00:00 17.4 10 Nordeste 21 Nordeste 0 -- -- 35
2021-02-17 17:00:00 18.4 9 Este 25 Sudeste 0 -- -- 32
2021-02-17 16:00:00 18.5 13 Este 27 Este 0 -- -- 33
2021-02-17 15:00:00 18.4 15 Este 33 Este 0 -- -- 34
2021-02-17 14:00:00 18.7 23 Este 41 Este 0 -- -- 33
2021-02-17 13:00:00 18.7 26 Este 41 Este 0 -- -- 34
2021-02-17 12:00:00 18.5 24 Sudeste 42 Este 0 -- -- 31
2021-02-17 11:00:00 18.1 24 Sudeste 38 Este 0 -- -- 33
2021-02-17 10:00:00 17.6 23 Sudeste 39 Sudeste 0 -- -- 32
2021-02-17 09:00:00 16.4 23 Este 39 Este 0 -- -- 36
2021-02-17 08:00:00 14.2 17 Este 31 Este 0 -- -- 57
2021-02-17 07:00:00 14.2 18 Este 31 Este 0 -- -- 69
2021-02-17 06:00:00 14.4 23 Este 34 Este 0 -- -- 73
2021-02-17 05:00:00 14.9 21 Este 35 Este 0 -- -- 85
2021-02-17 04:00:00 15.4 19 Este 32 Este 0 -- -- 85
2021-02-17 03:00:00 15.9 17 Este 37 Este 0 -- -- 81
2021-02-17 02:00:00 16.1 27 Este 46 Este 0 -- -- 77
2021-02-17 01:00:00 16.9 24 Este 50 Este 0 -- -- 57
2021-02-17 00:00:00 16.4 31 Este 50 Este 0 -- -- 69
2021-02-16 23:00:00 16.9 30 Este 42 Este 0 -- -- 61
2021-02-16 22:00:00 17.2 19 Nordeste 40 Nordeste 0 -- -- 44
2021-02-16 21:00:00 17.2 19 Nordeste 46 Este 0 -- -- 40
2021-02-16 20:00:00 19 25 Este 39 Nordeste 0 -- -- 28
2021-02-16 19:00:00 18.4 18 Este 42 Este 0 -- -- 27
2021-02-16 18:00:00 19.1 24 Este 42 Este 0 -- -- 26
2021-02-16 17:00:00 20.5 25 Este 48 Este 0 -- -- 23
2021-02-16 16:00:00 20.7 27 Este 49 Este 0 -- -- 22
2021-02-16 15:00:00 20.2 30 Este 46 Este 0 -- -- 31
2021-02-16 14:00:00 19.9 32 Este 49 Este 0 -- -- 36
2021-02-16 13:00:00 19.8 33 Este 55 Este 0 -- -- 37
2021-02-16 12:00:00 19.7 35 Este 54 Sudeste 0 -- -- 34
2021-02-16 11:00:00 19.6 33 Este 52 Este 0 -- -- 31
2021-02-16 10:00:00 19.1 32 Este 49 Este 0 -- -- 37
2021-02-16 09:00:00 17.5 26 Este 41 Este 0 -- -- 43
2021-02-16 08:00:00 14.3 17 Este 27 Este 0 -- -- 85
2021-02-16 07:00:00 14.4 14 Este 22 Este 0 -- -- 89
2021-02-16 06:00:00 14.4 10 Este 17 Este 0 -- -- 90
2021-02-16 05:00:00 14.7 8 Este 24 Este 0 -- -- 88
2021-02-16 04:00:00 15.8 17 Este 29 Este 0 -- -- 85
2021-02-16 03:00:00 15.4 15 Este 26 Este 0 -- -- 84
2021-02-16 02:00:00 16.1 17 Este 24 Este 0 -- -- 79
2021-02-16 01:00:00 16.9 14 Este 24 Este 0 -- -- 70
2021-02-16 00:00:00 17.6 12 Este 23 Este 0 -- -- 54
2021-02-15 23:00:00 18.2 12 Este 21 Este 0 -- -- 47
2021-02-15 22:00:00 18.9 13 Este 23 Este 0 -- -- 44
2021-02-15 21:00:00 19.6 15 Este 22 Este 0 -- -- 39
2021-02-15 20:00:00 19.6 15 Este 24 Este 0 -- -- 41
2021-02-15 19:00:00 20.1 16 Este 31 Este 0 -- -- 37
2021-02-15 18:00:00 21.3 17 Este 34 Este 0 -- -- 35
2021-02-15 17:00:00 22.5 21 Este 34 Este 0 -- -- 31
2021-02-15 16:00:00 22.9 19 Este 32 Este 0 -- -- 26
2021-02-15 15:00:00 22.8 23 Este 35 Este 0 -- -- 29
2021-02-15 14:00:00 22.3 21 Sudeste 36 Sudeste 0 -- -- 28
2021-02-15 13:00:00 21.6 22 Este 40 Este 0 -- -- 34
2021-02-15 12:00:00 21.2 24 Este 41 Este 0 -- -- 37
2021-02-15 11:00:00 20.3 24 Este 40 Este 0 -- -- 44
2021-02-15 10:00:00 17.6 17 Este 26 Este 0 -- -- 79
2021-02-15 09:00:00 15.6 14 Este 22 Este 0 -- -- 92
2021-02-15 08:00:00 13.9 13 Este 23 Este 0 -- -- 92
2021-02-15 07:00:00 14.1 14 Sudeste 21 Este 0 -- -- 89
2021-02-15 06:00:00 13.9 16 Este 25 Este 0 -- -- 95
2021-02-15 05:00:00 14.1 21 Este 38 Este 0 -- -- 93
2021-02-15 04:00:00 14.2 20 Este 35 Sudeste 0 -- -- 94
2021-02-15 03:00:00 14.7 23 Este 39 Sudeste 0 -- -- 94
2021-02-15 02:00:00 15 14 Este 35 Este 0 -- -- 92
2021-02-15 01:00:00 15.2 24 Sudeste 35 Sudeste 0 -- -- 91
2021-02-15 00:00:00 15.5 18 Este 31 Este 0 -- -- 92
2021-02-14 23:00:00 15.7 20 Este 32 Este 0 -- -- 93
2021-02-14 22:00:00 15.4 7 Este 15 Nordeste 0 -- -- 84
2021-02-14 21:00:00 15.4 7 Este 19 Este 0 -- -- 89
2021-02-14 20:00:00 16 11 Este 17 Este 0 -- -- 85
2021-02-14 19:00:00 17.2 8 Nordeste 16 Nordeste 0 -- -- 78
2021-02-14 18:00:00 19.4 10 Nordeste 19 Nordeste 0 -- -- 68
2021-02-14 17:00:00 19.9 12 Este 25 Sudeste 0 -- -- 66
2021-02-14 16:00:00 20 17 Este 27 Sudeste 0 -- -- 66
2021-02-14 15:00:00 20.4 15 Este 27 Este 0 -- -- 64
2021-02-14 14:00:00 20 14 Este 25 Este 0 -- -- 66
2021-02-14 13:00:00 18.9 13 Este 27 Nordeste 0 -- -- 69
2021-02-14 12:00:00 17 15 Nordeste 26 Nordeste 0 -- -- 76
2021-02-14 11:00:00 16.3 16 Nordeste 28 Este 0 -- -- 80
2021-02-14 10:00:00 15.6 16 Nordeste 27 Nordeste 0 -- -- 83
2021-02-14 09:00:00 15.2 17 Este 29 Este 0 -- -- 85
2021-02-14 08:00:00 14.8 17 Nordeste 26 Este 0 -- -- 87
2021-02-14 07:00:00 14.5 13 Este 25 Este 0 -- -- 86
2021-02-14 06:00:00 14.2 8 Este 23 Este 0 -- -- 87
2021-02-14 05:00:00 13.5 5 Este 10 Este 0 -- -- 89
2021-02-14 04:00:00 13.9 3 Nordeste 12 Nordeste 0 -- -- 89
2021-02-14 03:00:00 14.3 8 Nordeste 22 Nordeste 0 -- -- 89
2021-02-14 02:00:00 14.4 14 Este 19 Nordeste 0 -- -- 88
2021-02-14 01:00:00 14.3 11 Este 19 Este 0 -- -- 88
2021-02-14 00:00:00 14.1 9 Este 14 Este 0 -- -- 88
2021-02-13 23:00:00 14.2 6 Este 10 Este 0 -- -- 87
2021-02-13 22:00:00 14.5 5 Nordeste 12 Norte 0 -- -- 84
2021-02-13 21:00:00 15.2 7 Norte 17 Norte 0 -- -- 82
2021-02-13 20:00:00 15.7 8 Norte 21 Norte 0 -- -- 81
2021-02-13 19:00:00 16.3 10 Norte 26 Norte 0 -- -- 78
2021-02-13 18:00:00 17.5 13 Norte 26 Norte 0 -- -- 74
2021-02-13 17:00:00 18.5 12 Nordeste 24 Norte 0 -- -- 73
2021-02-13 16:00:00 19.2 12 Norte 27 Nordeste 0 -- -- 70
2021-02-13 15:00:00 19.7 14 Nordeste 23 Nordeste 0 -- -- 66
2021-02-13 14:00:00 19.6 12 Nordeste 28 Este 0 -- -- 65
2021-02-13 13:00:00 19.5 21 Nordeste 33 Nordeste 0 -- -- 64
2021-02-13 12:00:00 18.6 19 Nordeste 29 Nordeste 0 -- -- 68
2021-02-13 07:00:00 14.1 5 Este 14 Este 0 -- -- 87
2021-02-13 06:00:00 14.3 9 Este 15 Este 0 -- -- 86
2021-02-13 05:00:00 14.3 6 Sudeste 12 Este 0 -- -- 88
2021-02-13 04:00:00 13.9 3 Sudeste 14 Nordeste 0 -- -- 86
2021-02-13 03:00:00 14 5 Este 13 Nordeste 0 -- -- 87
2021-02-13 02:00:00 13 3 Este 4 Este 0 -- -- 87
2021-02-13 01:00:00 13.4 2 Este 5 Nordeste 0 -- -- 86
2021-02-13 00:00:00 13.8 0 Calma 8 Este 0 -- -- 84
2021-02-12 23:00:00 14.7 4 Este 10 Nordeste 0 -- -- 83
2021-02-12 22:00:00 15.5 6 Nordeste 17 Nordeste 0 -- -- 81
2021-02-12 21:00:00 16 11 Nordeste 21 Nordeste 0 -- -- 81
2021-02-12 20:00:00 16.7 12 Nordeste 24 Nordeste 0 -- -- 79
2021-02-12 19:00:00 16.9 17 Nordeste 29 Nordeste 0 -- -- 82
2021-02-12 18:00:00 17.4 18 Nordeste 31 Nordeste 0 -- -- 76
2021-02-12 17:00:00 18.4 20 Nordeste 34 Nordeste 0 -- -- 71
2021-02-12 16:00:00 19.2 21 Nordeste 34 Este 0 -- -- 66
2021-02-12 15:00:00 19.3 24 Nordeste 41 Nordeste 0 -- -- 64
2021-02-12 14:00:00 19.4 21 Nordeste 35 Este 0 -- -- 66
2021-02-12 13:00:00 19.7 19 Nordeste 35 Este 0 -- -- 60
2021-02-12 12:00:00 19 17 Nordeste 35 Este 0 -- -- 64
2021-02-12 11:00:00 18.1 18 Norte 29 Nordeste 0 -- -- 66
2021-02-12 10:00:00 17.1 17 Nordeste 27 Nordeste 0 -- -- 70
2021-02-12 09:00:00 16.4 11 Nordeste 21 Nordeste 0 -- -- 74
2021-02-12 08:00:00 15.1 6 Nordeste 14 Este 0 -- -- 84
2021-02-12 07:00:00 15.6 8 Nordeste 17 Nordeste 0 -- -- 82
2021-02-12 06:00:00 15.5 6 Nordeste 15 Nordeste 0 -- -- 78
2021-02-12 05:00:00 15.7 8 Nordeste 17 Nordeste 0 -- -- 84
2021-02-12 04:00:00 15.7 11 Nordeste 17 Nordeste 0 -- -- 81
2021-02-12 03:00:00 15.5 4 Nordeste 9 Este 0 -- -- 83
2021-02-12 02:00:00 15.4 6 Nordeste 13 Norte 0 -- -- 83
2021-02-12 01:00:00 14.7 4 Nordeste 8 Nordeste 0 -- -- 86
2021-02-12 00:00:00 13.9 5 Este 9 Nordeste 0 -- -- 87
2021-02-11 23:00:00 14.2 3 Sudeste 4 Sudeste 0 -- -- 86
2021-02-11 22:00:00 15.1 2 Este 8 Norte 0 -- -- 83
2021-02-11 21:00:00 16.1 8 Norte 20 Norte 0 -- -- 80
2021-02-11 20:00:00 16.1 8 Norte 15 Norte 0 -- -- 79
2021-02-11 19:00:00 16.9 8 Norte 21 Noroeste 0 -- -- 72
2021-02-11 18:00:00 18 10 Norte 26 Noroeste 0 -- -- 68
2021-02-11 17:00:00 18.9 12 Noroeste 26 Noroeste 0 -- -- 60
2021-02-11 16:00:00 19.4 13 Noroeste 26 Noroeste 0 -- -- 58
2021-02-11 15:00:00 19.8 13 Noroeste 27 Norte 0 -- -- 61
2021-02-11 14:00:00 19.7 15 Noroeste 27 Noroeste 0 -- -- 63
2021-02-11 13:00:00 19.6 8 Norte 20 Noroeste 0 -- -- 63
2021-02-11 12:00:00 18.7 9 Norte 18 Norte 0 -- -- 66
2021-02-11 11:00:00 18.7 5 Noroeste 13 Norte 0 -- -- 68
2021-02-11 10:00:00 17.1 8 Norte 14 Nordeste 0 -- -- 76
2021-02-11 09:00:00 15.5 0 Calma 4 Sudeste 0 -- -- 88
2021-02-11 08:00:00 14.7 0 Calma 6 Sudeste 0 -- -- 90
2021-02-11 07:00:00 14.6 2 Oeste 10 Noroeste 0 -- -- 91
2021-02-11 06:00:00 14.8 0 Calma 8 Este 0 -- -- 89
2021-02-11 05:00:00 14.4 0 Calma 4 Sur 0 -- -- 90
2021-02-11 04:00:00 14.1 0 Calma 3 Sudeste 0 -- -- 89
2021-02-11 03:00:00 14.1 0 Calma 4 Sudeste 0 -- -- 89
2021-02-11 02:00:00 14.6 3 Sudeste 4 Este 0 -- -- 87
2021-02-11 01:00:00 15.4 0 Calma 8 Nordeste 0 -- -- 84
2021-02-11 00:00:00 16 5 Nordeste 10 Norte 0 -- -- 82
2021-02-10 23:00:00 16.2 5 Norte 12 Noroeste 0 -- -- 83
2021-02-10 22:00:00 16.3 4 Norte 11 Noroeste 0 -- -- 84
2021-02-10 21:00:00 16.5 4 Norte 9 Noroeste 0 -- -- 83
2021-02-10 20:00:00 16.7 5 Norte 12 Noroeste 0 -- -- 83
2021-02-10 19:00:00 16.9 6 Norte 20 Noroeste 0 -- -- 81
2021-02-10 18:00:00 17.5 10 Noroeste 22 Noroeste 0 -- -- 77
2021-02-10 17:00:00 19 13 Noroeste 22 Noroeste 0 -- -- 69
2021-02-10 16:00:00 18.9 11 Noroeste 23 Noroeste 0 -- -- 69
2021-02-10 15:00:00 20.1 12 Noroeste 23 Noroeste 0 -- -- 64
2021-02-10 14:00:00 20 11 Noroeste 21 Norte 0 -- -- 66
2021-02-10 13:00:00 18.7 11 Noroeste 20 Noroeste 0 -- -- 74
2021-02-10 12:00:00 18.8 9 Noroeste 20 Noroeste 0 -- -- 75
2021-02-10 11:00:00 18.2 9 Noroeste 16 Noroeste 0 -- -- 81
2021-02-10 10:00:00 16.5 4 Oeste 9 Oeste 0 -- -- 90
2021-02-10 09:00:00 14.9 5 Noroeste 10 Noroeste 0 -- -- 95
2021-02-10 08:00:00 13.5 3 Oeste 8 Oeste 0 -- -- 94
2021-02-10 07:00:00 13.8 7 Oeste 10 Oeste 0 -- -- 93
2021-02-10 06:00:00 14.2 3 Noroeste 10 Oeste 0 -- -- 93
2021-02-10 05:00:00 14.5 4 Noroeste 17 Noroeste 0 -- -- 94
2021-02-10 04:00:00 14.1 4 Oeste 5 Oeste 0 -- -- 92
2021-02-10 03:00:00 13.8 3 Oeste 5 Oeste 0 -- -- 92
2021-02-10 02:00:00 13.8 2 Noroeste 5 Oeste 0 -- -- 90
2021-02-10 01:00:00 13.8 3 Oeste 5 Oeste 0 -- -- 91
2021-02-10 00:00:00 13.8 3 Noroeste 4 Oeste 0 -- -- 90
2021-02-09 23:00:00 14 3 Oeste 4 Noroeste 0 -- -- 88
2021-02-09 22:00:00 14.8 2 Noroeste 8 Oeste 0 -- -- 88
2021-02-09 21:00:00 15.6 6 Noroeste 14 Noroeste 0 -- -- 86
2021-02-09 20:00:00 16.3 13 Oeste 21 Oeste 0 -- -- 85
2021-02-09 19:00:00 17.1 10 Oeste 21 Oeste 0 -- -- 79
2021-02-09 18:00:00 18.1 14 Oeste 22 Oeste 0 -- -- 73
2021-02-09 17:00:00 19.9 17 Oeste 25 Oeste 0 -- -- 64
2021-02-09 16:00:00 20.5 18 Oeste 26 Oeste 0 -- -- 60
2021-02-09 15:00:00 20.5 15 Oeste 24 Oeste 0 -- -- 61
2021-02-09 14:00:00 20.3 13 Noroeste 24 Oeste 0 -- -- 61
2021-02-09 13:00:00 20.4 15 Oeste 26 Oeste 0 -- -- 61
2021-02-09 12:00:00 20.3 13 Oeste 26 Oeste 0 -- -- 63
2021-02-09 11:00:00 19.5 16 Oeste 23 Oeste 0 -- -- 63
2021-02-09 10:00:00 17.6 9 Oeste 14 Oeste 0 -- -- 73
2021-02-09 09:00:00 16.4 9 Oeste 12 Oeste 0 -- -- 78
2021-02-09 08:00:00 13.3 5 Sudoeste 8 Sudoeste 0 -- -- 87
2021-02-09 07:00:00 12.9 5 Noroeste 11 Oeste 0 -- -- 85
2021-02-09 06:00:00 12.4 7 Oeste 14 Oeste 0 -- -- 85
2021-02-09 05:00:00 12.3 10 Oeste 13 Oeste 0 -- -- 87
2021-02-09 04:00:00 12.9 4 Noroeste 7 Oeste 0 -- -- 88
2021-02-09 03:00:00 13.6 3 Noroeste 6 Noroeste 0 -- -- 86
2021-02-09 02:00:00 14.4 5 Noroeste 9 Noroeste 0 -- -- 85
2021-02-09 01:00:00 15.5 5 Noroeste 10 Oeste 0 -- -- 80
2021-02-09 00:00:00 16.1 5 Noroeste 12 Noroeste 0 -- -- 69
2021-02-08 23:00:00 16.1 5 Noroeste 16 Norte 0 -- -- 71
2021-02-08 22:00:00 16.3 9 Noroeste 17 Noroeste 0 -- -- 69
2021-02-08 21:00:00 16.3 6 Noroeste 16 Noroeste 0 -- -- 72
2021-02-08 20:00:00 16.2 7 Noroeste 22 Noroeste 0 -- -- 77
2021-02-08 19:00:00 16.3 10 Noroeste 22 Noroeste 0 -- -- 77
2021-02-08 18:00:00 17 13 Noroeste 22 Oeste 0 -- -- 73
2021-02-08 17:00:00 18.1 12 Noroeste 24 Oeste 0 -- -- 66
2021-02-08 16:00:00 18.3 13 Noroeste 23 Noroeste 0 -- -- 63
2021-02-08 15:00:00 18.6 10 Norte 27 Noroeste 0 -- -- 62
2021-02-08 14:00:00 17.6 11 Noroeste 23 Noroeste 0 -- -- 70
2021-02-08 13:00:00 16.2 8 Norte 22 Noroeste 0 -- -- 86
2021-02-08 12:00:00 18.1 10 Noroeste 20 Noroeste 0 -- -- 66
2021-02-08 11:00:00 17.7 10 Norte 21 Noroeste 0 -- -- 64
2021-02-08 10:00:00 16.1 5 Norte 13 Norte 0 -- -- 71
2021-02-08 09:00:00 14.6 3 Oeste 5 Oeste 0 -- -- 81
2021-02-08 08:00:00 13.9 2 Norte 8 Noroeste 0 -- -- 82
2021-02-08 07:00:00 13.7 3 Oeste 6 Oeste 0 -- -- 83
2021-02-08 06:00:00 13.8 4 Noroeste 8 Norte 0 -- -- 80
2021-02-08 05:00:00 13.9 5 Norte 9 Noroeste 0 -- -- 77
2021-02-08 04:00:00 13.8 0 Calma 12 Noroeste 0 -- -- 78
2021-02-08 03:00:00 13.9 2 Norte 9 Norte 0 -- -- 77
2021-02-08 02:00:00 13.8 3 Noroeste 7 Noroeste 0 -- -- 77
2021-02-08 01:00:00 14.2 4 Noroeste 15 Norte 0 -- -- 76
2021-02-08 00:00:00 13.7 5 Noroeste 13 Norte 0 -- -- 79
2021-02-07 23:00:00 12.9 3 Noroeste 8 Noroeste 0 -- -- 81
2021-02-07 22:00:00 12.6 2 Oeste 6 Norte 0 -- -- 82
2021-02-07 21:00:00 13.8 4 Norte 15 Norte 0 -- -- 78
2021-02-07 20:00:00 13.9 2 Norte 15 Noroeste 0 -- -- 78
2021-02-07 19:00:00 14.8 8 Norte 22 Noroeste 0 -- -- 72
2021-02-07 18:00:00 16.1 10 Noroeste 24 Noroeste 0 -- -- 68
2021-02-07 17:00:00 17.2 14 Noroeste 28 Noroeste 0 -- -- 60
2021-02-07 16:00:00 17.4 13 Noroeste 26 Noroeste 0 -- -- 59
2021-02-07 15:00:00 17.1 14 Noroeste 27 Noroeste 0 -- -- 62
2021-02-07 14:00:00 17.6 13 Noroeste 28 Noroeste 0 -- -- 60
2021-02-07 13:00:00 17.7 13 Noroeste 30 Noroeste 0 -- -- 57
2021-02-07 12:00:00 16.5 14 Norte 27 Noroeste 0 -- -- 66
2021-02-07 11:00:00 16.2 10 Noroeste 20 Norte 0 -- -- 65
2021-02-07 10:00:00 14.4 4 Norte 18 Noroeste 0 -- -- 78
2021-02-07 09:00:00 12.6 5 Norte 13 Noroeste 0 -- -- 80
2021-02-07 08:00:00 11.8 2 Oeste 9 Noroeste 0 -- -- 86
2021-02-07 07:00:00 11.6 4 Oeste 11 Norte 0 -- -- 85
2021-02-07 06:00:00 12.8 8 Norte 22 Nordeste 0 -- -- 79
2021-02-07 05:00:00 11.9 4 Noroeste 16 Noroeste 0 -- -- 83
2021-02-07 04:00:00 12.5 8 Norte 18 Noroeste 0 -- -- 86
2021-02-07 03:00:00 12.3 5 Noroeste 12 Noroeste 0 -- -- 83
2021-02-07 02:00:00 12.6 7 Noroeste 18 Noroeste 0 -- -- 83
2021-02-07 01:00:00 12.6 7 Norte 32 Norte 0 -- -- 82
2021-02-07 00:00:00 12.6 6 Norte 15 Noroeste 0 -- -- 82
2021-02-06 23:00:00 12.9 8 Noroeste 17 Noroeste 0 -- -- 80
2021-02-06 22:00:00 12.6 5 Noroeste 24 Noroeste 0 -- -- 82
2021-02-06 21:00:00 13.4 13 Noroeste 27 Noroeste 0 -- -- 79
2021-02-06 20:00:00 13.3 13 Noroeste 28 Norte 0 -- -- 76
2021-02-06 19:00:00 13.6 14 Noroeste 33 Noroeste 0 -- -- 79
2021-02-06 18:00:00 15.1 21 Noroeste 42 Noroeste 0 -- -- 65
2021-02-06 17:00:00 16.5 24 Noroeste 39 Noroeste 0 -- -- 60
2021-02-06 16:00:00 16.8 22 Noroeste 41 Noroeste 0 -- -- 60
2021-02-06 15:00:00 16.7 23 Noroeste 44 Noroeste 0 -- -- 59
2021-02-06 14:00:00 17.1 25 Noroeste 41 Noroeste 0 -- -- 57
2021-02-06 13:00:00 16.9 24 Noroeste 43 Noroeste 0 -- -- 61
2021-02-06 12:00:00 15.7 22 Noroeste 41 Noroeste 0 -- -- 66
2021-02-06 11:00:00 15.5 22 Noroeste 38 Noroeste 0 -- -- 67
2021-02-06 10:00:00 14.2 17 Noroeste 36 Oeste 0 -- -- 80
2021-02-06 09:00:00 12.2 13 Noroeste 22 Oeste 0 -- -- 82
2021-02-06 08:00:00 9.6 4 Noroeste 11 Oeste 0 -- -- 86
2021-02-06 07:00:00 9.3 3 Oeste 7 Norte 0 -- -- 88
2021-02-06 06:00:00 10.5 5 Norte 19 Norte 0 -- -- 85
2021-02-06 05:00:00 9.7 5 Noroeste 11 Norte 0 -- -- 85
2021-02-06 04:00:00 10 4 Noroeste 14 Noroeste 0 -- -- 83
2021-02-06 03:00:00 10.7 6 Noroeste 30 Noroeste 0 -- -- 84
2021-02-06 02:00:00 10.9 16 Noroeste 36 Noroeste 0 -- -- 87
2021-02-06 01:00:00 11 8 Noroeste 22 Noroeste 0 -- -- 90
2021-02-06 00:00:00 10.5 4 Oeste 7 Noroeste 0 -- -- 88
2021-02-05 23:00:00 10.6 0 Calma 17 Norte 1.6 -- -- 86
2021-02-05 22:00:00 11.3 0 Calma 9 Oeste 0 -- -- 87
2021-02-05 21:00:00 11.3 5 Oeste 12 Nordeste 0 -- -- 85
2021-02-05 20:00:00 11.4 10 Nordeste 33 Nordeste 0 -- -- 88
2021-02-05 19:00:00 12.6 10 Norte 25 Noroeste 0 -- -- 76
2021-02-05 18:00:00 13.8 11 Noroeste 21 Noroeste 0 -- -- 69
2021-02-05 17:00:00 14.7 10 Noroeste 25 Norte 0 -- -- 64
2021-02-05 16:00:00 14.1 14 Norte 34 Norte 0 -- -- 69
2021-02-05 15:00:00 13.8 20 Norte 39 Noroeste 0 -- -- 78
2021-02-05 14:00:00 14.9 14 Noroeste 32 Noroeste 0 -- -- 71
2021-02-05 13:00:00 14.8 17 Noroeste 28 Oeste 0 -- -- 66
2021-02-05 12:00:00 13.3 10 Noroeste 40 Noroeste 0 -- -- 77
2021-02-05 11:00:00 14.8 19 Noroeste 27 Oeste 0 -- -- 71
2021-02-05 10:00:00 13.8 16 Oeste 30 Noroeste 0 -- -- 78
2021-02-05 09:00:00 12.4 10 Noroeste 33 Oeste 0 -- -- 83
2021-02-05 08:00:00 11.3 19 Oeste 42 Oeste 0 -- -- 82
2021-02-05 07:00:00 11.6 17 Noroeste 28 Oeste 0 -- -- 80
2021-02-05 06:00:00 11.1 18 Oeste 33 Noroeste 0 -- -- 77
2021-02-05 05:00:00 11.7 22 Noroeste 36 Noroeste 0.4 -- -- 85
2021-02-05 04:00:00 11.9 19 Oeste 36 Oeste 0 -- -- 79
2021-02-05 03:00:00 12 24 Oeste 42 Oeste 0 -- -- 76
2021-02-05 02:00:00 11.5 21 Oeste 40 Oeste 0 -- -- 80
2021-02-05 01:00:00 12 28 Oeste 41 Oeste 0 -- -- 68
2021-02-05 00:00:00 12 21 Oeste 35 Oeste 0 -- -- 73
2021-02-04 23:00:00 11.8 19 Oeste 28 Oeste 0 -- -- 77
2021-02-04 22:00:00 12.3 20 Oeste 29 Oeste 0 -- -- 78
2021-02-04 21:00:00 12.5 18 Oeste 27 Oeste 0 -- -- 79
2021-02-04 20:00:00 12.5 10 Noroeste 17 Noroeste 0 -- -- 90
2021-02-04 19:00:00 12.2 8 Oeste 22 Oeste 0.2 -- -- 93
2021-02-04 18:00:00 12.6 17 Oeste 29 Oeste 0 -- -- 91
2021-02-04 17:00:00 13.2 21 Oeste 28 Oeste 0 -- -- 81
2021-02-04 16:00:00 12.2 19 Oeste 36 Oeste 0.8 -- -- 89
2021-02-04 15:00:00 14.1 22 Oeste 34 Oeste 0 -- -- 87
2021-02-04 14:00:00 13.1 23 Oeste 42 Noroeste 0.2 -- -- 90
2021-02-04 13:00:00 14.5 24 Oeste 39 Oeste 0 -- -- 84
2021-02-04 12:00:00 14.8 22 Noroeste 42 Noroeste 0 -- -- 83
2021-02-04 11:00:00 13.9 15 Noroeste 31 Noroeste 0.8 -- -- 94
2021-02-04 10:00:00 14.7 13 Oeste 26 Noroeste 0 -- -- 93
2021-02-04 09:00:00 14.5 11 Oeste 18 Oeste 0.2 -- -- 90
2021-02-04 08:00:00 13.8 3 Sudoeste 11 Sudoeste 0 -- -- 83
2021-02-04 07:00:00 13.5 3 Sudoeste 8 Oeste 0 -- -- 80
2021-02-04 06:00:00 12.8 0 Calma 3 Sudoeste 0 -- -- 80
2021-02-04 05:00:00 12.8 3 Sudeste 6 Oeste 0 -- -- 78
2021-02-04 04:00:00 13.5 6 Oeste 12 Oeste 0 -- -- 76
2021-02-04 03:00:00 14.7 6 Oeste 10 Noroeste 0 -- -- 77
2021-02-04 02:00:00 14.7 5 Noroeste 12 Noroeste 0 -- -- 75
2021-02-04 01:00:00 15 8 Noroeste 15 Noroeste 0 -- -- 76
2021-02-04 00:00:00 15.2 8 Noroeste 19 Noroeste 0 -- -- 76
2021-02-03 23:00:00 15.4 9 Noroeste 17 Noroeste 0 -- -- 78
2021-02-03 22:00:00 14.7 5 Noroeste 9 Noroeste 0 -- -- 80
2021-02-03 21:00:00 13.9 4 Noroeste 9 Noroeste 0 -- -- 82
2021-02-03 20:00:00 14.7 6 Noroeste 14 Noroeste 0 -- -- 79
2021-02-03 19:00:00 16 9 Noroeste 16 Oeste 0 -- -- 77
2021-02-03 18:00:00 17.4 10 Noroeste 22 Noroeste 0 -- -- 70
2021-02-03 17:00:00 18.9 12 Noroeste 22 Norte 0 -- -- 65
2021-02-03 16:00:00 19.8 11 Noroeste 26 Oeste 0 -- -- 62
2021-02-03 15:00:00 20.1 12 Noroeste 23 Noroeste 0 -- -- 61
2021-02-03 14:00:00 20.8 10 Noroeste 26 Noroeste 0 -- -- 59
2021-02-03 13:00:00 21.2 10 Noroeste 19 Noroeste 0 -- -- 59
2021-02-03 12:00:00 19.3 4 Este 13 Este 0 -- -- 64
2021-02-03 11:00:00 18.3 6 Este 14 Este 0 -- -- 69
2021-02-03 10:00:00 16.7 8 Sudeste 14 Sudeste 0 -- -- 77
2021-02-03 09:00:00 14.9 7 Nordeste 13 Este 0 -- -- 82
2021-02-03 08:00:00 14.2 6 Este 13 Este 0 -- -- 86
2021-02-03 07:00:00 14.4 8 Este 14 Este 0 -- -- 83
2021-02-03 06:00:00 14.6 10 Este 18 Este 0 -- -- 84
2021-02-03 05:00:00 15.1 5 Este 14 Este 0 -- -- 84
2021-02-03 04:00:00 15 9 Este 15 Este 0 -- -- 85
2021-02-03 03:00:00 15.2 3 Nordeste 8 Este 0 -- -- 84
2021-02-03 02:00:00 15.4 3 Noroeste 11 Nordeste 0 -- -- 85
2021-02-03 01:00:00 15.4 6 Este 13 Sudeste 0 -- -- 86
2021-02-03 00:00:00 15.4 5 Nordeste 12 Este 0 -- -- 88
2021-02-02 23:00:00 15.6 4 Este 10 Nordeste 0 -- -- 88
2021-02-02 22:00:00 15.8 3 Este 10 Nordeste 0 -- -- 88
2021-02-02 21:00:00 15.6 7 Nordeste 12 Nordeste 0 -- -- 88
2021-02-02 20:00:00 15.7 9 Nordeste 15 Este 0 -- -- 88
2021-02-02 19:00:00 16.5 11 Este 21 Este 0 -- -- 83
2021-02-02 18:00:00 18.2 14 Este 22 Este 0 -- -- 76
2021-02-02 17:00:00 18.9 15 Este 24 Sudeste 0 -- -- 73
2021-02-02 16:00:00 18.9 16 Sudeste 25 Este 0 -- -- 73
2021-02-02 15:00:00 20.5 15 Este 22 Este 0 -- -- 66
2021-02-02 14:00:00 19.6 12 Este 22 Este 0 -- -- 69
2021-02-02 13:00:00 19 10 Este 19 Este 0 -- -- 71
2021-02-02 12:00:00 17.7 10 Este 21 Este 0 -- -- 76
2021-02-02 11:00:00 16.6 13 Este 28 Este 0 -- -- 82
2021-02-02 10:00:00 16.1 18 Este 28 Este 0 -- -- 84
2021-02-02 09:00:00 15.5 16 Este 27 Este 0 -- -- 87
2021-02-02 08:00:00 15.1 15 Este 23 Este 0 -- -- 89
2021-02-02 07:00:00 15.2 13 Este 22 Este 0 -- -- 88
2021-02-02 06:00:00 15.1 13 Este 21 Este 0 -- -- 87
2021-02-02 05:00:00 15.1 11 Este 23 Este 0 -- -- 88
2021-02-02 04:00:00 15 12 Este 23 Este 0 -- -- 88
2021-02-02 03:00:00 14.8 12 Este 23 Este 0 -- -- 89
2021-02-02 02:00:00 14.9 12 Nordeste 22 Este 0 -- -- 89
2021-02-02 01:00:00 15 9 Este 22 Este 0 -- -- 89
2021-02-02 00:00:00 14.9 4 Este 15 Este 0 -- -- 87
2021-02-01 23:00:00 15.4 10 Nordeste 20 Este 0 -- -- 86
2021-02-01 22:00:00 15.8 8 Este 15 Nordeste 0 -- -- 84
2021-02-01 21:00:00 16.1 5 Nordeste 12 Nordeste 0 -- -- 83
2021-02-01 20:00:00 16.8 11 Nordeste 20 Nordeste 0 -- -- 82
2021-02-01 19:00:00 17.6 9 Nordeste 22 Este 0 -- -- 80
2021-02-01 18:00:00 18.9 16 Nordeste 33 Este 0 -- -- 70
2021-02-01 17:00:00 20.7 21 Este 36 Nordeste 0 -- -- 55
2021-02-01 16:00:00 21.1 21 Este 41 Este 0 -- -- 54
2021-02-01 15:00:00 22 21 Este 40 Este 0 -- -- 54
2021-02-01 14:00:00 22.1 26 Este 39 Nordeste 0 -- -- 51
2021-02-01 13:00:00 22 24 Nordeste 41 Nordeste 0 -- -- 52
2021-02-01 12:00:00 21.7 22 Nordeste 41 Nordeste 0 -- -- 51
2021-02-01 11:00:00 20.2 25 Nordeste 45 Nordeste 0 -- -- 58
2021-02-01 10:00:00 18.1 21 Nordeste 32 Nordeste 0 -- -- 72
2021-02-01 09:00:00 15.5 5 Este 21 Nordeste 0 -- -- 90
2021-02-01 08:00:00 13.6 4 Este 11 Este 0 -- -- 94
2021-02-01 07:00:00 13.3 2 Este 9 Sur 0 -- -- 94
2021-02-01 06:00:00 13.7 4 Sudeste 8 Sudeste 0 -- -- 94
2021-02-01 05:00:00 13.4 2 Este 10 Norte 0 -- -- 93
2021-02-01 04:00:00 12.6 0 Calma 6 Nordeste 0 -- -- 89
2021-02-01 03:00:00 13.4 4 Este 9 Sur 0 -- -- 91
2021-02-01 02:00:00 13.7 3 Nordeste 10 Nordeste 0 -- -- 89
2021-02-01 01:00:00 13.6 6 Nordeste 8 Nordeste 0 -- -- 89
2021-02-01 00:00:00 14.4 5 Este 10 Nordeste 0 -- -- 88
2021-01-31 23:00:00 15 5 Este 14 Nordeste 0 -- -- 87
2021-01-31 22:00:00 15.6 8 Nordeste 32 Norte 0 -- -- 85
2021-01-31 21:00:00 16 21 Norte 34 Norte 0 -- -- 85
2021-01-31 20:00:00 16.2 15 Norte 33 Norte 0 -- -- 82
2021-01-31 19:00:00 16.6 12 Norte 33 Norte 0 -- -- 81
2021-01-31 18:00:00 17.9 16 Norte 37 Norte 0 -- -- 73
2021-01-31 17:00:00 19 20 Norte 38 Nordeste 0 -- -- 68
2021-01-31 16:00:00 19.7 20 Norte 41 Norte 0 -- -- 66
2021-01-31 15:00:00 19.9 20 Norte 39 Norte 0 -- -- 65
2021-01-31 14:00:00 20.2 14 Norte 32 Norte 0 -- -- 63
2021-01-31 13:00:00 19.9 17 Norte 31 Norte 0 -- -- 64
2021-01-31 12:00:00 19.3 15 Norte 30 Norte 0 -- -- 63
2021-01-31 11:00:00 18.2 16 Norte 28 Norte 0 -- -- 70
2021-01-31 10:00:00 17.2 12 Norte 24 Norte 0 -- -- 75
2021-01-31 09:00:00 15.7 12 Norte 30 Norte 0 -- -- 82
2021-01-31 08:00:00 15.1 10 Norte 22 Nordeste 0 -- -- 85
2021-01-31 07:00:00 14.7 3 Este 17 Norte 0 -- -- 87
2021-01-31 06:00:00 15.3 8 Nordeste 16 Nordeste 0 -- -- 86
2021-01-31 05:00:00 15.4 10 Nordeste 27 Nordeste 0 -- -- 83
2021-01-31 04:00:00 15.4 15 Nordeste 28 Nordeste 0 -- -- 90
2021-01-31 03:00:00 15.9 15 Nordeste 29 Este 0 -- -- 85
2021-01-31 02:00:00 15.7 19 Nordeste 34 Nordeste 0 -- -- 86
2021-01-31 01:00:00 15.8 22 Nordeste 33 Nordeste 0 -- -- 83
2021-01-31 00:00:00 15.6 15 Nordeste 24 Norte 0 -- -- 80
2021-01-30 23:00:00 15.7 11 Nordeste 19 Norte 0 -- -- 78
2021-01-30 22:00:00 15.5 8 Nordeste 18 Norte 0 -- -- 79
2021-01-30 21:00:00 15.4 8 Norte 17 Nordeste 0 -- -- 80
2021-01-30 20:00:00 15.6 8 Norte 19 Nordeste 0 -- -- 79
2021-01-30 19:00:00 16.4 10 Norte 22 Norte 0 -- -- 77
2021-01-30 18:00:00 17.5 13 Norte 23 Norte 0 -- -- 72
2021-01-30 17:00:00 18.1 14 Norte 24 Nordeste 0 -- -- 70
2021-01-30 16:00:00 19.7 13 Nordeste 25 Noroeste 0 -- -- 67
2021-01-30 15:00:00 19.9 10 Nordeste 23 Nordeste 0 -- -- 67
2021-01-30 14:00:00 20.1 13 Nordeste 27 Nordeste 0 -- -- 65
2021-01-30 13:00:00 19.9 13 Nordeste 24 Nordeste 0 -- -- 65
2021-01-30 12:00:00 18.8 10 Norte 23 Norte 0 -- -- 69
2021-01-30 11:00:00 17.8 14 Nordeste 26 Nordeste 0 -- -- 73
2021-01-30 10:00:00 16.5 15 Nordeste 23 Nordeste 0 -- -- 80
2021-01-30 09:00:00 15.6 10 Norte 18 Nordeste 0 -- -- 86
2021-01-30 08:00:00 14.7 10 Nordeste 20 Este 0 -- -- 90
2021-01-30 07:00:00 14.6 13 Este 23 Este 0 -- -- 89
2021-01-30 06:00:00 14.7 15 Este 30 Este 0 -- -- 89
2021-01-30 05:00:00 14.8 15 Este 29 Sudeste 0 -- -- 87
2021-01-30 04:00:00 15 8 Este 28 Norte 0 -- -- 85
2021-01-30 03:00:00 15.7 15 Norte 30 Norte 0 -- -- 84
2021-01-30 02:00:00 16.2 9 Norte 24 Norte 0 -- -- 87
2021-01-30 01:00:00 16.2 11 Noroeste 27 Noroeste 0 -- -- 90
2021-01-30 00:00:00 14.7 2 Sudoeste 7 Oeste 0 -- -- 68